createdAt,value
2023-02-27T00:01:16.240Z,99454.97
2023-02-27T00:04:19.165Z,99447.09
2023-02-27T00:07:25.979Z,99441.88
2023-02-27T00:10:27.617Z,99450.66
2023-02-27T00:13:29.331Z,99438.34
2023-02-27T00:16:31.006Z,99446.19
2023-02-27T00:19:34.089Z,99448.78
2023-02-27T00:22:35.601Z,99441.75
2023-02-27T00:25:37.499Z,99447.91
2023-02-27T00:28:39.127Z,99448.69
2023-02-27T00:31:40.769Z,99444.34
2023-02-27T00:34:43.916Z,99454.81
2023-02-27T00:37:45.486Z,99455.63
2023-02-27T00:40:47.174Z,99457.28
2023-02-27T00:43:49.314Z,99459.91
2023-02-27T00:46:52.910Z,99463.38
2023-02-27T00:49:56.062Z,99467.69
2023-02-27T00:52:57.704Z,99461.50
2023-02-27T00:55:59.507Z,99460.63
2023-02-27T00:59:01.075Z,99455.41
2023-02-27T01:02:02.716Z,99458.03
2023-02-27T01:05:06.274Z,99448.41
2023-02-27T01:08:08.018Z,99445.75
2023-02-27T01:11:10.517Z,99445.75
2023-02-27T01:14:12.638Z,99445.72
2023-02-27T01:17:14.180Z,99450.97
2023-02-27T01:20:17.401Z,99448.31
2023-02-27T01:23:20.493Z,99453.56
2023-02-27T01:26:24.388Z,99438.66
2023-02-27T01:29:26.265Z,99443.91
2023-02-27T01:32:28.053Z,99446.44
2023-02-27T01:35:31.145Z,99445.59
2023-02-27T01:38:32.707Z,99446.47
2023-02-27T01:41:35.566Z,99449.91
2023-02-27T01:44:58.003Z,99449.03
2023-02-27T01:48:03.897Z,99435.84
2023-02-27T01:51:11.282Z,99446.28
2023-02-27T01:54:15.457Z,99451.38
2023-02-27T01:57:17.056Z,99440.00
2023-02-27T02:00:19.009Z,99448.63
2023-02-27T02:03:25.000Z,99451.25
2023-02-27T02:06:27.641Z,99449.47
2023-02-27T02:09:30.329Z,99449.50
2023-02-27T02:12:34.145Z,99446.91
2023-02-27T02:23:26.475Z,99452.31
2023-02-27T02:26:33.517Z,99447.06
2023-02-27T02:30:02.452Z,99447.16
2023-02-27T02:33:22.841Z,99452.38
2023-02-27T02:36:42.432Z,99448.81
2023-02-27T02:40:05.069Z,99452.31
2023-02-27T02:43:12.338Z,99454.88
2023-02-27T02:46:17.525Z,99453.06
2023-02-27T02:49:25.815Z,99448.59
2023-02-27T02:52:32.000Z,99449.31
2023-02-27T02:55:35.583Z,99460.56
2023-02-27T02:58:44.232Z,99459.66
2023-02-27T03:01:49.119Z,99460.50
2023-02-27T03:04:53.636Z,99457.75
2023-02-27T03:07:58.717Z,99457.59
2023-02-27T03:11:06.048Z,99458.50
2023-02-27T03:14:13.252Z,99457.66
2023-02-27T03:17:20.973Z,99456.00
2023-02-27T03:20:24.430Z,99463.94
2023-02-27T03:23:29.718Z,99460.38
2023-02-27T03:26:33.745Z,99456.88
2023-02-27T03:29:39.109Z,99459.41
2023-02-27T03:32:45.874Z,99462.00
2023-02-27T03:35:51.474Z,99459.31
2023-02-27T03:38:57.475Z,99464.53
2023-02-27T03:42:05.090Z,99456.50
2023-02-27T03:45:33.106Z,99457.38
2023-02-27T03:48:35.101Z,99457.47
2023-02-27T03:51:36.807Z,99466.28
2023-02-27T03:54:42.165Z,99460.19
2023-02-27T03:57:45.103Z,99466.34
2023-02-27T04:00:48.070Z,99469.84
2023-02-27T04:03:52.578Z,99481.16
2023-02-27T04:07:22.632Z,99477.59
2023-02-27T04:10:35.188Z,99478.41
2023-02-27T04:13:51.717Z,99474.94
2023-02-27T04:17:05.479Z,99482.00
2023-02-27T04:20:17.227Z,99484.50
2023-02-27T04:23:20.316Z,99490.38
2023-02-27T04:26:27.928Z,99488.59
2023-02-27T04:29:32.377Z,99492.00
2023-02-27T04:32:38.501Z,99489.41
2023-02-27T04:35:43.881Z,99494.56
2023-02-27T04:38:49.142Z,99501.53
2023-02-27T04:41:52.386Z,99500.81
2023-02-27T04:44:56.260Z,99495.56
2023-02-27T04:48:01.267Z,99505.88
2023-02-27T04:51:05.368Z,99504.97
2023-02-27T04:54:10.579Z,99511.94
2023-02-27T04:57:16.339Z,99511.13
2023-02-27T05:00:20.463Z,99514.81
2023-02-27T05:03:24.974Z,99514.88
2023-02-27T05:06:29.202Z,99517.53
2023-02-27T05:09:33.220Z,99521.06
2023-02-27T05:12:38.919Z,99517.50
2023-02-27T05:15:44.099Z,99515.66
2023-02-27T05:18:48.160Z,99522.53
2023-02-27T05:21:53.561Z,99512.06
2023-02-27T05:25:02.341Z,99512.94
2023-02-27T05:28:07.495Z,99519.13
2023-02-27T05:31:15.497Z,99508.50
2023-02-27T05:34:20.877Z,99502.53
2023-02-27T05:37:25.382Z,99513.94
2023-02-27T05:40:31.010Z,99514.94
2023-02-27T05:43:34.789Z,99518.28
2023-02-27T05:46:38.115Z,99517.22
2023-02-27T05:49:43.973Z,99520.59
2023-02-27T05:52:46.377Z,99518.00
2023-02-27T05:55:49.979Z,99518.22
2023-02-27T05:58:54.520Z,99527.59
2023-02-27T06:01:56.301Z,99520.53
2023-02-27T06:04:59.849Z,99521.28
2023-02-27T06:08:01.313Z,99535.22
2023-02-27T06:11:02.982Z,99537.78
2023-02-27T06:14:04.609Z,99537.78
2023-02-27T06:17:06.205Z,99535.88
2023-02-27T06:20:10.358Z,99551.56
2023-02-27T06:23:12.178Z,99555.19
2023-02-27T06:26:14.515Z,99561.31
2023-02-27T06:29:17.526Z,99563.91
2023-02-27T06:32:19.242Z,99560.41
2023-02-27T06:35:22.574Z,99556.84
2023-02-27T06:38:24.161Z,99565.63
2023-02-27T06:41:25.879Z,99563.88
2023-02-27T06:44:27.394Z,99572.41
2023-02-27T06:47:28.965Z,99566.38
2023-02-27T06:50:31.856Z,99570.75
2023-02-27T06:53:33.743Z,99578.16
2023-02-27T06:56:35.415Z,99580.09
2023-02-27T06:59:37.127Z,99584.63
2023-02-27T07:02:39.012Z,99595.19
2023-02-27T07:05:42.050Z,99591.78
2023-02-27T07:09:01.579Z,99592.69
2023-02-27T07:12:05.857Z,99599.69
2023-02-27T07:15:08.310Z,99607.56
2023-02-27T07:18:09.848Z,99603.22
2023-02-27T07:21:12.929Z,99601.69
2023-02-27T07:24:14.553Z,99613.34
2023-02-27T07:27:16.121Z,99617.63
2023-02-27T07:30:18.400Z,99615.19
2023-02-27T07:33:19.973Z,99621.63
2023-02-27T07:36:23.396Z,99608.69
2023-02-27T07:39:25.169Z,99614.25
2023-02-27T07:42:26.836Z,99619.78
2023-02-27T07:45:29.866Z,99616.31
2023-02-27T07:48:31.528Z,99622.59
2023-02-27T07:51:34.361Z,99607.94
2023-02-27T07:54:37.605Z,99613.28
2023-02-27T07:57:39.625Z,99610.81
2023-02-27T08:00:41.184Z,99609.13
2023-02-27T08:03:42.928Z,99608.34
2023-02-27T08:06:46.004Z,99617.00
2023-02-27T08:09:47.707Z,99616.97
2023-02-27T08:12:49.853Z,99618.88
2023-02-27T08:15:51.550Z,99612.00
2023-02-27T08:29:57.483Z,99607.91
2023-02-27T08:32:59.221Z,99601.94
2023-02-27T08:36:01.024Z,99604.69
2023-02-27T08:39:02.846Z,99610.06
2023-02-27T08:42:04.575Z,99619.84
2023-02-27T08:45:08.331Z,99617.38
2023-02-27T08:48:14.064Z,99620.03
2023-02-27T08:51:15.927Z,99616.59
2023-02-27T08:54:18.735Z,99617.59
2023-02-27T08:57:20.470Z,99622.91
2023-02-27T09:00:24.331Z,99626.44
2023-02-27T09:03:28.662Z,99633.50
2023-02-27T09:06:31.477Z,99638.72
2023-02-27T09:09:33.270Z,99645.03
2023-02-27T09:12:35.064Z,99644.22
2023-02-27T09:15:38.187Z,99653.16
2023-02-27T09:18:39.903Z,99643.50
2023-02-27T09:21:42.661Z,99655.81
2023-02-27T09:24:44.319Z,99641.78
2023-02-27T09:27:46.008Z,99640.03
2023-02-27T09:30:48.929Z,99638.34
2023-02-27T09:33:50.602Z,99641.78
2023-02-27T09:36:52.186Z,99646.06
2023-02-27T09:39:54.593Z,99646.25
2023-02-27T09:43:00.553Z,99646.44
2023-02-27T09:46:05.825Z,99643.00
2023-02-27T09:49:12.762Z,99643.81
2023-02-27T09:52:15.454Z,99642.13
2023-02-27T09:55:19.126Z,99639.50
2023-02-27T09:58:40.186Z,99632.47
2023-02-27T10:01:46.991Z,99639.50
2023-02-27T10:04:53.430Z,99631.50
2023-02-27T10:08:10.196Z,99640.25
2023-02-27T10:11:14.251Z,99637.53
2023-02-27T10:14:24.096Z,99642.88
2023-02-27T10:17:30.589Z,99638.44
2023-02-27T10:20:33.485Z,99633.91
2023-02-27T10:23:39.350Z,99633.81
2023-02-27T10:26:42.418Z,99635.81
2023-02-27T10:29:44.044Z,99628.97
2023-02-27T10:32:48.353Z,99631.69
2023-02-27T10:35:53.915Z,99650.09
2023-02-27T10:38:57.139Z,99647.34
2023-02-27T10:42:03.412Z,99643.75
2023-02-27T10:45:05.551Z,99635.75
2023-02-27T10:48:08.756Z,99642.72
2023-02-27T10:51:20.373Z,99643.66
2023-02-27T10:54:23.691Z,99641.06
2023-02-27T10:57:30.558Z,99641.84
2023-02-27T11:00:41.270Z,99638.25
2023-02-27T11:03:44.534Z,99635.63
2023-02-27T11:06:51.701Z,99629.50
2023-02-27T11:09:59.181Z,99640.88
2023-02-27T11:13:05.428Z,99629.53
2023-02-27T11:16:09.088Z,99626.06
2023-02-27T11:19:23.662Z,99622.59
2023-02-27T11:22:26.118Z,99631.56
2023-02-27T11:25:27.834Z,99624.53
2023-02-27T11:28:31.605Z,99625.47
2023-02-27T11:31:34.096Z,99622.84
2023-02-27T11:34:39.097Z,99622.84
2023-02-27T11:37:41.921Z,99625.47
2023-02-27T11:40:50.736Z,99622.03
2023-02-27T11:43:53.088Z,99627.28
2023-02-27T11:47:07.938Z,99625.53
2023-02-27T11:50:32.027Z,99626.63
2023-02-27T11:53:52.548Z,99611.72
2023-02-27T11:56:55.807Z,99619.66
2023-02-27T11:59:58.877Z,99618.78
2023-02-27T12:03:04.316Z,99611.75
2023-02-27T12:06:13.694Z,99606.50
2023-02-27T12:09:23.767Z,99611.75
2023-02-27T12:12:29.050Z,99602.94
2023-02-27T12:15:34.187Z,99604.59
2023-02-27T12:18:38.484Z,99602.06
2023-02-27T12:21:43.778Z,99610.00
2023-02-27T12:24:49.635Z,99600.31
2023-02-27T12:31:11.970Z,99606.50
2023-02-27T12:34:19.314Z,99601.19
2023-02-27T12:37:24.212Z,99603.84
2023-02-27T12:40:29.682Z,99599.44
2023-02-27T12:43:38.095Z,99603.84
2023-02-27T12:46:46.183Z,99597.63
2023-02-27T12:49:51.739Z,99595.75
2023-02-27T12:53:04.660Z,99594.88
2023-02-27T12:56:10.111Z,99593.09
2023-02-27T12:59:18.737Z,99595.69
2023-02-27T13:02:34.123Z,99588.56
2023-02-27T13:05:37.740Z,99593.78
2023-02-27T13:08:49.307Z,99596.19
2023-02-27T13:11:54.298Z,99594.50
2023-02-27T13:14:58.773Z,99593.13
2023-02-27T13:18:05.355Z,99594.06
2023-02-27T13:21:10.916Z,99596.63
2023-02-27T13:24:23.668Z,99593.91
2023-02-27T13:30:52.864Z,99579.59
2023-02-27T13:33:59.766Z,99594.44
2023-02-27T13:40:37.128Z,99588.75
2023-02-27T13:43:51.499Z,99603.84
2023-02-27T13:58:04.920Z,99594.88
2023-02-27T14:01:15.602Z,99602.91
2023-02-27T14:04:18.629Z,99596.75
2023-02-27T14:07:23.558Z,99598.28
2023-02-27T14:10:26.628Z,99600.91
2023-02-27T14:16:53.109Z,99601.09
2023-02-27T14:19:56.998Z,99598.56
2023-02-27T14:23:16.685Z,99592.31
2023-02-27T14:26:21.424Z,99600.97
2023-02-27T14:29:24.434Z,99595.63
2023-02-27T14:32:31.007Z,99596.41
2023-02-27T14:35:33.089Z,99600.75
2023-02-27T14:38:35.769Z,99605.09
2023-02-27T14:41:45.902Z,99600.63
2023-02-27T14:44:48.529Z,99601.38
2023-02-27T14:47:52.490Z,99607.50
2023-02-27T14:50:54.730Z,99597.91
2023-02-27T14:54:00.432Z,99605.97
2023-02-27T14:57:06.360Z,99608.69
2023-02-27T15:00:28.686Z,99613.16
2023-02-27T15:03:35.337Z,99612.44
2023-02-27T15:06:41.426Z,99609.81
2023-02-27T15:09:45.004Z,99622.06
2023-02-27T15:12:47.726Z,99619.53
2023-02-27T15:15:52.415Z,99624.91
2023-02-27T15:18:56.268Z,99626.63
2023-02-27T15:21:59.312Z,99627.53
2023-02-27T15:25:03.014Z,99628.38
2023-02-27T15:28:05.804Z,99624.03
2023-02-27T15:31:08.368Z,99631.97
2023-02-27T15:34:14.583Z,99638.13
2023-02-27T15:37:19.761Z,99641.66
2023-02-27T15:40:22.011Z,99639.03
2023-02-27T15:43:24.831Z,99639.00
2023-02-27T15:46:26.654Z,99632.00
2023-02-27T15:49:30.076Z,99636.38
2023-02-27T15:52:33.460Z,99639.91
2023-02-27T15:55:37.492Z,99639.91
2023-02-27T15:58:43.455Z,99640.75
2023-02-27T16:05:14.543Z,99633.69
2023-02-27T16:08:18.364Z,99636.38
2023-02-27T16:11:20.573Z,99631.97
2023-02-27T16:14:39.245Z,99641.63
2023-02-27T16:25:11.236Z,99644.25
2023-02-27T16:28:13.551Z,99641.63
2023-02-27T16:31:26.174Z,99650.38
2023-02-27T16:34:42.758Z,99647.75
2023-02-27T16:37:50.881Z,99658.28
2023-02-27T16:40:53.812Z,99656.50
2023-02-27T16:43:55.709Z,99659.13
2023-02-27T16:50:19.232Z,99653.84
2023-02-27T16:53:20.861Z,99651.16
2023-02-27T16:56:37.345Z,99655.50
2023-02-27T16:59:41.149Z,99659.91
2023-02-27T17:02:43.544Z,99657.22
2023-02-27T17:05:45.157Z,99658.97
2023-02-27T17:15:49.058Z,99670.28
2023-02-27T17:18:52.317Z,99672.91
2023-02-27T17:21:54.216Z,99670.25
2023-02-27T17:24:55.831Z,99672.91
2023-02-27T17:27:57.456Z,99683.41
2023-02-27T17:30:59.017Z,99686.00
2023-02-27T17:34:03.698Z,99688.63
2023-02-27T17:37:05.290Z,99690.38
2023-02-27T17:40:08.235Z,99686.81
2023-02-27T17:43:10.158Z,99686.81
2023-02-27T17:46:12.514Z,99689.47
2023-02-27T17:49:15.449Z,99693.00
2023-02-27T17:52:16.989Z,99689.47
2023-02-27T17:55:21.169Z,99700.00
2023-02-27T17:58:22.816Z,99693.88
2023-02-27T18:01:25.822Z,99689.44
2023-02-27T18:04:29.110Z,99694.69
2023-02-27T18:07:30.971Z,99699.88
2023-02-27T18:10:32.870Z,99697.25
2023-02-27T18:13:34.392Z,99706.00
2023-02-27T18:16:36.325Z,99709.50
2023-02-27T18:19:40.001Z,99700.72
2023-02-27T18:22:41.708Z,99698.09
2023-02-27T18:25:43.353Z,99702.50
2023-02-27T18:28:45.110Z,99697.25
2023-02-27T18:31:48.339Z,99692.84
2023-02-27T18:34:51.391Z,99703.41
2023-02-27T18:37:53.176Z,99704.28
2023-02-27T18:40:55.177Z,99701.63
2023-02-27T18:43:58.336Z,99704.25
2023-02-27T18:47:00.303Z,99699.88
2023-02-27T18:50:03.337Z,99702.50
2023-02-27T18:53:05.053Z,99708.66
2023-02-27T18:56:07.904Z,99706.88
2023-02-27T18:59:12.024Z,99706.00
2023-02-27T19:02:14.758Z,99710.34
2023-02-27T19:05:19.283Z,99713.00
2023-02-27T19:08:21.026Z,99721.78
2023-02-27T19:11:23.512Z,99718.28
2023-02-27T19:14:25.658Z,99721.78
2023-02-27T19:17:27.531Z,99722.66
2023-02-27T19:20:30.930Z,99720.84
2023-02-27T19:23:32.595Z,99721.72
2023-02-27T19:26:34.795Z,99723.47
2023-02-27T19:29:36.531Z,99721.69
2023-02-27T19:32:38.523Z,99725.19
2023-02-27T19:35:43.601Z,99720.81
2023-02-27T19:38:45.330Z,99724.31
2023-02-27T19:41:47.107Z,99726.97
2023-02-27T19:44:48.752Z,99731.31
2023-02-27T19:47:50.375Z,99732.19
2023-02-27T19:50:53.274Z,99728.66
2023-02-27T19:53:55.099Z,99728.63
2023-02-27T19:56:56.730Z,99725.97
2023-02-27T19:59:58.466Z,99718.91
2023-02-27T20:03:00.655Z,99717.09
2023-02-27T20:06:06.893Z,99721.41
2023-02-27T20:09:09.442Z,99723.94
2023-02-27T20:12:10.957Z,99717.78
2023-02-27T20:15:12.908Z,99723.81
2023-02-27T20:18:14.435Z,99718.50
2023-02-27T20:21:18.864Z,99727.25
2023-02-27T20:24:22.380Z,99731.63
2023-02-27T20:27:23.945Z,99722.84
2023-02-27T20:30:25.588Z,99726.34
2023-02-27T20:33:27.176Z,99728.88
2023-02-27T20:36:30.047Z,99729.72
2023-02-27T20:39:31.732Z,99724.44
2023-02-27T20:42:33.274Z,99734.00
2023-02-27T20:45:38.002Z,99735.72
2023-02-27T20:48:40.279Z,99730.47
2023-02-27T20:51:43.372Z,99731.31
2023-02-27T20:54:44.946Z,99737.44
2023-02-27T20:57:46.511Z,99732.13
2023-02-27T21:00:48.066Z,99735.56
2023-02-27T21:03:55.255Z,99725.88
2023-02-27T21:06:58.294Z,99730.22
2023-02-27T21:09:59.800Z,99739.84
2023-02-27T21:13:01.532Z,99734.63
2023-02-27T21:16:03.564Z,99739.88
2023-02-27T21:19:05.604Z,99745.97
2023-02-27T21:22:11.191Z,99745.13
2023-02-27T21:25:12.912Z,99748.63
2023-02-27T21:28:14.487Z,99742.50
2023-02-27T21:31:17.101Z,99746.88
2023-02-27T21:34:20.122Z,99747.72
2023-02-27T21:37:23.016Z,99748.63
2023-02-27T21:40:24.935Z,99746.97
2023-02-27T21:43:26.515Z,99748.72
2023-02-27T21:46:28.752Z,99755.75
2023-02-27T21:49:31.239Z,99751.38
2023-02-27T21:52:34.177Z,99754.88
2023-02-27T21:55:35.804Z,99747.88
2023-02-27T21:58:38.065Z,99750.47
2023-02-27T22:01:39.784Z,99739.06
2023-02-27T22:04:41.372Z,99739.94
2023-02-27T22:07:44.573Z,99748.69
2023-02-27T22:10:46.113Z,99739.94
2023-02-27T22:13:47.879Z,99744.25
2023-02-27T22:16:52.918Z,99742.44
2023-02-27T22:19:55.877Z,99745.00
2023-02-27T22:22:59.489Z,99730.19
2023-02-27T22:26:02.010Z,99739.81
2023-02-27T22:29:04.571Z,99739.72
2023-02-27T22:32:06.731Z,99732.69
2023-02-27T22:35:08.747Z,99734.34
2023-02-27T22:38:13.009Z,99730.84
2023-02-27T22:41:16.025Z,99732.56
2023-02-27T22:44:17.648Z,99732.50
2023-02-27T22:47:19.344Z,99736.91
2023-02-27T22:50:21.695Z,99730.69
2023-02-27T22:53:24.573Z,99731.56
2023-02-27T22:56:26.326Z,99734.16
2023-02-27T22:59:28.300Z,99735.88
2023-02-27T23:02:33.440Z,99734.97
2023-02-27T23:05:37.302Z,99735.78
2023-02-27T23:08:40.453Z,99737.63
2023-02-27T23:11:42.111Z,99744.53
2023-02-27T23:14:44.011Z,99752.44
2023-02-27T23:17:57.861Z,99757.72
2023-02-27T23:24:22.267Z,99759.63
2023-02-27T23:27:26.452Z,99762.25
2023-02-27T23:30:28.771Z,99770.16
2023-02-27T23:33:30.620Z,99767.53
2023-02-27T23:36:32.643Z,99776.31
2023-02-27T23:39:35.755Z,99771.06
2023-02-27T23:42:37.384Z,99773.72
2023-02-27T23:45:39.028Z,99781.66
2023-02-27T23:48:41.007Z,99779.06
2023-02-27T23:51:42.641Z,99779.13
2023-02-27T23:54:45.597Z,99784.44
2023-02-27T23:57:47.858Z,99787.06
